createdAt,value
2023-02-24T00:01:52.608Z,1.06
2023-02-24T00:04:20.747Z,1.02
2023-02-24T00:06:47.593Z,1.02
2023-02-24T00:09:19.784Z,1.00
2023-02-24T00:11:57.245Z,0.98
2023-02-24T00:14:26.780Z,0.99
2023-02-24T00:16:53.565Z,0.98
2023-02-24T00:19:23.534Z,0.94
2023-02-24T00:21:51.687Z,0.93
2023-02-24T00:24:18.636Z,0.86
2023-02-24T00:26:48.428Z,0.90
2023-02-24T00:29:14.966Z,0.90
2023-02-24T00:31:43.134Z,0.85
2023-02-24T00:34:12.850Z,0.79
2023-02-24T00:36:39.903Z,0.75
2023-02-24T00:39:11.415Z,0.74
2023-02-24T00:41:41.618Z,0.72
2023-02-24T00:44:11.096Z,0.71
2023-02-24T00:46:40.425Z,0.62
2023-02-24T00:49:17.081Z,0.55
2023-02-24T00:51:46.360Z,0.51
2023-02-24T00:54:16.168Z,0.52
2023-02-24T00:56:45.169Z,0.48
2023-02-24T00:59:13.685Z,0.44
2023-02-24T01:01:41.412Z,0.42
2023-02-24T01:04:11.558Z,0.40
2023-02-24T01:06:45.092Z,0.42
2023-02-24T01:09:14.617Z,0.40
2023-02-24T01:12:00.649Z,0.40
2023-02-24T01:14:30.297Z,0.39
2023-02-24T01:16:57.578Z,0.36
2023-02-24T01:19:30.505Z,0.35
2023-02-24T01:21:58.280Z,0.33
2023-02-24T01:24:25.958Z,0.29
2023-02-24T01:26:53.084Z,0.22
2023-02-24T01:29:19.602Z,0.22
2023-02-24T01:31:48.679Z,0.18
2023-02-24T01:34:16.987Z,0.14
2023-02-24T01:36:43.835Z,0.09
2023-02-24T01:39:12.625Z,0.01
2023-02-24T01:41:45.948Z,0.04
2023-02-24T01:44:17.320Z,0.03
2023-02-24T01:46:46.286Z,0.04
2023-02-24T01:49:24.333Z,-0.01
2023-02-24T01:51:59.060Z,-0.05
2023-02-24T01:54:32.547Z,-0.09
2023-02-24T01:56:59.525Z,-0.12
2023-02-24T01:59:30.049Z,-0.09
2023-02-24T02:02:03.948Z,-0.11
2023-02-24T02:04:40.648Z,-0.10
2023-02-24T02:07:10.930Z,-0.11
2023-02-24T02:09:41.542Z,-0.13
2023-02-24T02:12:09.479Z,-0.12
2023-02-24T02:14:38.902Z,-0.13
2023-02-24T02:17:05.264Z,-0.14
2023-02-24T02:19:55.475Z,-0.16
2023-02-24T02:22:40.044Z,-0.09
2023-02-24T02:25:07.224Z,-0.05
2023-02-24T02:27:58.475Z,-0.07
2023-02-24T02:30:53.035Z,-0.13
2023-02-24T02:33:28.579Z,-0.19
2023-02-24T02:36:00.539Z,-0.15
2023-02-24T02:38:45.028Z,-0.21
2023-02-24T02:41:28.881Z,-0.23
2023-02-24T02:44:21.585Z,-0.22
2023-02-24T02:46:52.825Z,-0.24
2023-02-24T02:49:30.424Z,-0.22
2023-02-24T02:52:05.576Z,-0.25
2023-02-24T02:54:45.355Z,-0.29
2023-02-24T02:57:21.308Z,-0.27
2023-02-24T02:59:55.296Z,-0.25
2023-02-24T03:02:29.456Z,-0.27
2023-02-24T03:05:00.484Z,-0.29
2023-02-24T03:07:34.867Z,-0.31
2023-02-24T03:10:10.828Z,-0.29
2023-02-24T03:12:40.820Z,-0.32
2023-02-24T03:15:10.839Z,-0.27
2023-02-24T03:17:42.503Z,-0.23
2023-02-24T03:20:39.627Z,-0.20
2023-02-24T03:23:16.728Z,-0.18
2023-02-24T03:25:51.922Z,-0.18
2023-02-24T03:28:29.011Z,-0.18
2023-02-24T03:31:22.523Z,-0.17
2023-02-24T03:34:01.277Z,-0.14
2023-02-24T03:36:28.762Z,-0.13
2023-02-24T03:38:58.293Z,-0.12
2023-02-24T03:41:38.127Z,-0.13
2023-02-24T03:44:07.594Z,-0.12
2023-02-24T03:46:34.515Z,-0.04
2023-02-24T03:49:10.263Z,0.00
2023-02-24T03:51:44.788Z,0.04
2023-02-24T03:54:35.060Z,0.09
2023-02-24T03:57:23.620Z,0.18
2023-02-24T04:00:21.958Z,0.23
2023-02-24T04:02:58.441Z,0.27
2023-02-24T04:05:29.121Z,0.32
2023-02-24T04:08:08.701Z,0.38
2023-02-24T04:10:52.355Z,0.42
2023-02-24T04:13:48.211Z,0.44
2023-02-24T04:16:27.989Z,0.49
2023-02-24T04:19:03.477Z,0.57
2023-02-24T04:21:32.231Z,0.61
2023-02-24T04:24:06.172Z,0.66
2023-02-24T04:26:36.494Z,0.69
2023-02-24T04:29:03.736Z,0.76
2023-02-24T04:31:33.047Z,0.84
2023-02-24T04:34:00.245Z,0.87
2023-02-24T04:36:26.681Z,0.90
2023-02-24T04:38:54.193Z,0.96
2023-02-24T04:41:23.802Z,1.01
2023-02-24T04:43:50.919Z,1.05
2023-02-24T04:46:19.049Z,1.12
2023-02-24T04:48:45.667Z,1.14
2023-02-24T04:51:13.581Z,1.17
2023-02-24T04:53:40.833Z,1.19
2023-02-24T04:56:09.145Z,1.22
2023-02-24T04:58:38.650Z,1.23
2023-02-24T05:01:14.802Z,1.23
2023-02-24T05:03:44.132Z,1.22
2023-02-24T05:06:16.161Z,1.26
2023-02-24T05:08:43.485Z,1.26
2023-02-24T05:11:16.469Z,1.30
2023-02-24T05:13:45.725Z,1.30
2023-02-24T05:16:13.820Z,1.33
2023-02-24T05:18:40.646Z,1.35
2023-02-24T05:21:31.808Z,1.35
2023-02-24T05:23:59.416Z,1.36
2023-02-24T05:26:26.985Z,1.36
2023-02-24T05:28:56.500Z,1.36
2023-02-24T05:31:26.551Z,1.36
2023-02-24T05:33:57.554Z,1.37
2023-02-24T05:36:25.699Z,1.38
2023-02-24T05:39:07.259Z,1.38
2023-02-24T05:41:39.231Z,1.42
2023-02-24T05:44:11.362Z,1.44
2023-02-24T05:46:40.784Z,1.44
2023-02-24T05:49:15.984Z,1.43
2023-02-24T05:51:54.584Z,1.44
2023-02-24T05:54:24.411Z,1.46
2023-02-24T05:56:50.951Z,1.47
2023-02-24T05:59:21.521Z,1.49
2023-02-24T06:01:49.299Z,1.50
2023-02-24T06:04:39.309Z,1.52
2023-02-24T06:07:06.736Z,1.53
2023-02-24T06:09:34.493Z,1.56
2023-02-24T06:12:02.577Z,1.58
2023-02-24T06:14:29.111Z,1.59
2023-02-24T06:16:55.577Z,1.58
2023-02-24T06:19:22.025Z,1.63
2023-02-24T06:21:48.605Z,1.65
2023-02-24T06:24:15.596Z,1.66
2023-02-24T06:26:45.509Z,1.68
2023-02-24T06:29:17.228Z,1.70
2023-02-24T06:31:44.666Z,1.74
2023-02-24T06:34:13.999Z,1.75
2023-02-24T06:36:40.544Z,1.77
2023-02-24T06:39:10.204Z,1.80
2023-02-24T06:41:37.917Z,1.86
2023-02-24T06:44:04.676Z,1.87
2023-02-24T06:46:31.222Z,1.91
2023-02-24T06:49:00.446Z,1.95
2023-02-24T06:51:30.128Z,1.99
2023-02-24T06:53:59.388Z,2.01
2023-02-24T06:56:27.275Z,2.03
2023-02-24T06:58:55.862Z,2.06
2023-02-24T07:01:26.172Z,2.08
2023-02-24T07:04:13.110Z,2.10
2023-02-24T07:06:41.712Z,2.11
2023-02-24T07:09:18.774Z,2.16
2023-02-24T07:11:48.368Z,2.20
2023-02-24T07:14:14.837Z,2.21
2023-02-24T07:16:45.327Z,2.23
2023-02-24T07:19:14.789Z,2.27
2023-02-24T07:21:46.681Z,2.30
2023-02-24T07:24:20.197Z,2.31
2023-02-24T07:26:51.676Z,2.35
2023-02-24T07:29:18.457Z,2.40
2023-02-24T07:31:45.105Z,2.44
2023-02-24T07:34:15.000Z,2.46
2023-02-24T07:36:49.263Z,2.52
2023-02-24T07:39:17.525Z,2.56
2023-02-24T07:41:49.511Z,2.60
2023-02-24T07:44:18.001Z,2.64
2023-02-24T07:46:45.540Z,2.68
2023-02-24T07:49:19.830Z,2.71
2023-02-24T07:51:52.629Z,2.75
2023-02-24T07:54:21.219Z,2.80
2023-02-24T07:56:56.412Z,2.84
2023-02-24T07:59:34.503Z,2.89
2023-02-24T08:02:04.746Z,2.91
2023-02-24T08:04:32.934Z,2.95
2023-02-24T08:07:03.217Z,2.98
2023-02-24T08:09:46.181Z,3.02
2023-02-24T08:12:18.500Z,3.05
2023-02-24T08:14:50.853Z,3.09
2023-02-24T08:17:22.127Z,3.11
2023-02-24T08:19:50.275Z,3.15
2023-02-24T08:22:20.286Z,3.18
2023-02-24T08:25:00.639Z,3.25
2023-02-24T08:27:31.666Z,3.31
2023-02-24T08:30:02.900Z,3.35
2023-02-24T08:32:43.641Z,3.41
2023-02-24T08:35:17.267Z,3.49
2023-02-24T08:37:53.046Z,3.55
2023-02-24T08:40:31.981Z,3.63
2023-02-24T08:43:19.651Z,3.65
2023-02-24T08:46:03.541Z,3.68
2023-02-24T08:48:38.985Z,3.68
2023-02-24T08:51:08.461Z,3.71
2023-02-24T08:53:35.214Z,3.72
2023-02-24T08:56:11.520Z,3.74
2023-02-24T08:58:48.549Z,3.74
2023-02-24T09:01:20.004Z,3.76
2023-02-24T09:03:49.060Z,3.80
2023-02-24T09:06:25.220Z,3.83
2023-02-24T09:09:15.533Z,3.87
2023-02-24T09:11:44.194Z,3.92
2023-02-24T09:14:26.167Z,3.98
2023-02-24T09:17:04.100Z,3.99
2023-02-24T09:19:40.468Z,4.06
2023-02-24T09:22:21.222Z,4.12
2023-02-24T09:24:50.961Z,4.20
2023-02-24T09:27:17.569Z,4.29
2023-02-24T09:29:49.338Z,4.33
2023-02-24T09:32:16.248Z,4.39
2023-02-24T09:34:46.127Z,4.42
2023-02-24T09:37:26.173Z,4.44
2023-02-24T09:39:56.264Z,4.53
2023-02-24T09:42:29.104Z,4.62
2023-02-24T09:45:01.630Z,4.67
2023-02-24T09:47:55.518Z,4.71
2023-02-24T09:50:47.249Z,4.71
2023-02-24T09:53:14.089Z,4.65
2023-02-24T09:56:00.460Z,4.69
2023-02-24T09:58:51.016Z,4.63
2023-02-24T10:01:33.487Z,4.68
2023-02-24T10:04:29.588Z,4.69
2023-02-24T10:07:10.967Z,4.67
2023-02-24T10:09:44.119Z,4.70
2023-02-24T10:12:13.654Z,4.72
2023-02-24T10:14:51.154Z,4.76
2023-02-24T10:17:24.207Z,4.84
2023-02-24T10:20:00.622Z,4.82
2023-02-24T10:22:50.586Z,4.86
2023-02-24T10:25:53.695Z,4.85
2023-02-24T10:28:59.310Z,4.92
2023-02-24T10:31:40.837Z,4.89
2023-02-24T10:34:20.258Z,4.87
2023-02-24T10:36:50.334Z,4.89
2023-02-24T10:39:25.603Z,4.95
2023-02-24T10:41:59.289Z,4.99
2023-02-24T10:44:36.060Z,4.93
2023-02-24T10:47:14.206Z,4.96
2023-02-24T10:49:58.280Z,4.99
2023-02-24T10:52:37.324Z,4.99
2023-02-24T10:55:08.702Z,5.03
2023-02-24T10:57:59.293Z,5.04
2023-02-24T11:00:51.189Z,5.09
2023-02-24T11:03:35.812Z,5.15
2023-02-24T11:06:03.260Z,5.18
2023-02-24T11:08:37.029Z,5.22
2023-02-24T11:11:31.093Z,5.24
2023-02-24T11:14:20.177Z,5.23
2023-02-24T11:17:13.533Z,5.25
2023-02-24T11:19:47.752Z,5.32
2023-02-24T11:22:20.348Z,5.41
2023-02-24T11:24:47.685Z,5.44
2023-02-24T11:27:18.488Z,5.49
2023-02-24T11:30:01.097Z,5.55
2023-02-24T11:32:38.727Z,5.58
2023-02-24T11:35:22.177Z,5.62
2023-02-24T11:38:02.287Z,5.66
2023-02-24T11:40:35.739Z,5.70
2023-02-24T11:43:11.672Z,5.75
2023-02-24T11:45:47.193Z,5.78
2023-02-24T11:48:28.068Z,5.79
2023-02-24T11:51:06.030Z,5.83
2023-02-24T11:53:41.869Z,5.81
2023-02-24T11:56:15.559Z,5.86
2023-02-24T11:58:57.453Z,5.89
2023-02-24T12:01:44.660Z,5.95
2023-02-24T12:04:23.410Z,6.04
2023-02-24T12:06:49.796Z,6.19
2023-02-24T12:09:26.343Z,6.33
2023-02-24T12:12:04.932Z,6.49
2023-02-24T12:14:52.572Z,6.61
2023-02-24T12:17:39.061Z,6.75
2023-02-24T12:20:06.952Z,6.90
2023-02-24T12:22:43.544Z,6.95
2023-02-24T12:25:13.089Z,7.25
2023-02-24T12:28:04.378Z,7.33
2023-02-24T12:30:57.658Z,7.34
2023-02-24T12:33:49.269Z,7.32
2023-02-24T12:36:31.171Z,7.32
2023-02-24T12:39:15.800Z,7.41
2023-02-24T12:41:44.957Z,7.56
2023-02-24T12:44:31.354Z,7.63
2023-02-24T12:47:11.730Z,7.73
2023-02-24T12:49:47.238Z,7.99
2023-02-24T12:52:31.111Z,8.48
2023-02-24T12:55:22.558Z,8.99
2023-02-24T12:57:58.049Z,9.38
2023-02-24T13:00:47.678Z,9.59
2023-02-24T13:03:19.832Z,9.43
2023-02-24T13:06:03.078Z,9.26
2023-02-24T13:08:55.923Z,9.04
2023-02-24T13:11:42.625Z,8.83
2023-02-24T13:14:25.551Z,8.69
2023-02-24T13:17:11.216Z,8.53
2023-02-24T13:19:43.421Z,8.45
2023-02-24T13:22:12.832Z,8.45
2023-02-24T13:24:44.261Z,8.65
2023-02-24T13:27:14.672Z,8.87
2023-02-24T13:30:24.680Z,8.85
2023-02-24T13:33:06.572Z,8.90
2023-02-24T13:35:36.553Z,8.86
2023-02-24T13:38:21.808Z,8.73
2023-02-24T13:40:48.190Z,8.64
2023-02-24T13:43:25.627Z,8.50
2023-02-24T13:45:59.039Z,8.20
2023-02-24T13:48:54.006Z,7.70
2023-02-24T13:51:51.268Z,7.28
2023-02-24T13:54:20.667Z,6.99
2023-02-24T13:56:56.819Z,6.84
2023-02-24T13:59:30.388Z,6.79
2023-02-24T14:01:58.774Z,6.83
2023-02-24T14:04:33.722Z,6.92
2023-02-24T14:07:03.778Z,7.32
2023-02-24T14:09:38.778Z,7.80
2023-02-24T14:12:14.858Z,8.06
2023-02-24T14:14:44.317Z,8.24
2023-02-24T14:17:28.534Z,8.55
2023-02-24T14:20:04.206Z,8.84
2023-02-24T14:22:30.737Z,8.81
2023-02-24T14:25:09.267Z,8.62
2023-02-24T14:27:37.605Z,8.36
2023-02-24T14:30:05.637Z,8.09
2023-02-24T14:32:33.660Z,7.87
2023-02-24T14:35:00.218Z,7.71
2023-02-24T14:37:31.032Z,7.59
2023-02-24T14:39:59.812Z,7.58
2023-02-24T14:42:27.952Z,7.58
2023-02-24T14:44:56.984Z,7.52
2023-02-24T14:47:28.705Z,7.45
2023-02-24T14:50:02.267Z,7.36
2023-02-24T14:52:51.043Z,7.24
2023-02-24T14:55:21.801Z,7.17
2023-02-24T14:57:51.087Z,7.13
2023-02-24T15:00:24.138Z,7.05
2023-02-24T15:03:14.749Z,6.98
2023-02-24T15:05:47.493Z,6.97
2023-02-24T15:08:42.266Z,6.98
2023-02-24T15:11:14.945Z,6.98
2023-02-24T15:13:52.008Z,7.01
2023-02-24T15:16:24.871Z,6.99
2023-02-24T15:18:53.474Z,6.97
2023-02-24T15:21:23.651Z,7.03
2023-02-24T15:24:02.120Z,7.03
2023-02-24T15:26:35.287Z,7.02
2023-02-24T15:29:13.618Z,7.01
2023-02-24T15:31:40.399Z,7.07
2023-02-24T15:34:19.814Z,7.12
2023-02-24T15:36:47.170Z,7.15
2023-02-24T15:39:23.154Z,7.17
2023-02-24T15:41:52.222Z,7.22
2023-02-24T15:44:35.413Z,7.33
2023-02-24T15:47:21.328Z,7.38
2023-02-24T15:49:47.780Z,7.41
2023-02-24T15:52:25.187Z,7.46
2023-02-24T15:54:52.495Z,7.45
2023-02-24T15:57:20.260Z,7.35
2023-02-24T15:59:47.376Z,7.30
2023-02-24T16:02:18.324Z,7.24
2023-02-24T16:04:44.791Z,7.17
2023-02-24T16:07:17.470Z,7.08
2023-02-24T16:09:45.466Z,7.02
2023-02-24T16:12:32.039Z,6.95
2023-02-24T16:15:03.374Z,6.90
2023-02-24T16:17:38.933Z,6.79
2023-02-24T16:20:11.548Z,6.69
2023-02-24T16:22:37.986Z,6.62
2023-02-24T16:25:05.796Z,6.62
2023-02-24T16:27:32.496Z,6.60
2023-02-24T16:30:00.585Z,6.61
2023-02-24T16:32:27.368Z,6.57
2023-02-24T16:34:54.283Z,6.46
2023-02-24T16:37:27.131Z,6.41
2023-02-24T16:39:53.699Z,6.37
2023-02-24T16:42:21.926Z,6.34
2023-02-24T16:44:49.873Z,6.31
2023-02-24T16:47:22.959Z,6.30
2023-02-24T16:49:50.575Z,6.30
2023-02-24T16:52:19.035Z,6.26
2023-02-24T16:54:46.099Z,6.20
2023-02-24T16:57:12.466Z,6.15
2023-02-24T16:59:38.862Z,6.10
2023-02-24T17:02:05.353Z,6.07
2023-02-24T17:04:32.180Z,6.03
2023-02-24T17:06:58.906Z,6.00
2023-02-24T17:09:28.572Z,5.97
2023-02-24T17:11:55.019Z,5.99
2023-02-24T17:14:21.427Z,5.98
2023-02-24T17:16:47.876Z,5.92
2023-02-24T17:19:14.341Z,5.83
2023-02-24T17:21:45.291Z,5.73
2023-02-24T17:24:17.660Z,5.62
2023-02-24T17:26:44.195Z,5.55
2023-02-24T17:29:12.075Z,5.50
2023-02-24T17:31:38.830Z,5.51
2023-02-24T17:34:06.417Z,5.52
2023-02-24T17:36:32.944Z,5.52
2023-02-24T17:38:59.650Z,5.51
2023-02-24T17:41:26.199Z,5.44
2023-02-24T17:43:53.228Z,5.43
2023-02-24T17:46:20.896Z,5.44
2023-02-24T17:48:47.657Z,5.42
2023-02-24T17:51:15.531Z,5.40
2023-02-24T17:53:42.025Z,5.44
2023-02-24T17:56:09.443Z,5.42
2023-02-24T17:58:37.128Z,5.43
2023-02-24T18:01:05.650Z,5.45
2023-02-24T18:03:34.065Z,5.48
2023-02-24T18:06:02.939Z,5.51
2023-02-24T18:08:30.502Z,5.48
2023-02-24T18:10:58.996Z,5.37
2023-02-24T18:13:27.131Z,5.29
2023-02-24T18:15:53.783Z,5.23
2023-02-24T18:18:20.180Z,5.16
2023-02-24T18:20:47.497Z,5.10
2023-02-24T18:23:14.397Z,5.06
2023-02-24T18:25:40.909Z,5.07
2023-02-24T18:28:07.401Z,5.06
2023-02-24T18:30:33.852Z,5.00
2023-02-24T18:33:00.754Z,5.00
2023-02-24T18:35:29.526Z,5.02
2023-02-24T18:37:58.582Z,4.96
2023-02-24T18:40:26.493Z,4.92
2023-02-24T18:42:53.010Z,4.90
2023-02-24T18:45:20.137Z,4.89
2023-02-24T18:47:47.283Z,4.87
2023-02-24T18:50:14.858Z,4.87
2023-02-24T18:52:41.335Z,4.85
2023-02-24T18:55:08.746Z,4.79
2023-02-24T18:57:35.197Z,4.76
2023-02-24T19:00:03.749Z,4.75
2023-02-24T19:02:30.295Z,4.70
2023-02-24T19:04:57.062Z,4.69
2023-02-24T19:07:23.476Z,4.67
2023-02-24T19:09:50.518Z,4.65
2023-02-24T19:12:18.099Z,4.62
2023-02-24T19:14:44.662Z,4.59
2023-02-24T19:17:11.137Z,4.58
2023-02-24T19:19:38.824Z,4.56
2023-02-24T19:22:05.212Z,4.52
2023-02-24T19:24:31.674Z,4.51
2023-02-24T19:26:58.159Z,4.47
2023-02-24T19:29:25.992Z,4.45
2023-02-24T19:31:57.548Z,4.45
2023-02-24T19:34:24.161Z,4.49
2023-02-24T19:36:50.670Z,4.50
2023-02-24T19:39:17.994Z,4.52
2023-02-24T19:41:45.021Z,4.56
2023-02-24T19:44:11.867Z,4.61
2023-02-24T19:46:39.032Z,4.64
2023-02-24T19:49:05.532Z,4.68
2023-02-24T19:51:32.568Z,4.72
2023-02-24T19:54:03.196Z,4.75
2023-02-24T19:56:32.953Z,4.79
2023-02-24T19:59:01.375Z,4.82
2023-02-24T20:01:29.459Z,4.84
2023-02-24T20:03:59.076Z,4.88
2023-02-24T20:06:31.245Z,4.90
2023-02-24T20:08:58.205Z,4.92
2023-02-24T20:11:24.898Z,4.89
2023-02-24T20:13:52.984Z,4.88
2023-02-24T20:16:22.470Z,4.90
2023-02-24T20:18:49.174Z,4.91
2023-02-24T20:21:15.583Z,4.99
2023-02-24T20:23:42.666Z,5.06
2023-02-24T20:26:11.516Z,5.06
2023-02-24T20:28:37.939Z,5.07
2023-02-24T20:31:10.446Z,5.07
2023-02-24T20:33:39.042Z,5.09
2023-02-24T20:36:10.579Z,5.12
2023-02-24T20:38:37.884Z,5.12
2023-02-24T20:41:04.968Z,5.13
2023-02-24T20:43:31.742Z,5.17
2023-02-24T20:45:59.182Z,5.15
2023-02-24T20:48:26.690Z,5.12
2023-02-24T20:50:53.062Z,5.11
2023-02-24T20:53:19.507Z,5.10
2023-02-24T20:55:45.946Z,5.10
2023-02-24T20:58:12.735Z,5.05
2023-02-24T21:00:40.536Z,4.99
2023-02-24T21:03:11.798Z,4.95
2023-02-24T21:05:38.887Z,4.91
2023-02-24T21:08:05.367Z,4.89
2023-02-24T21:10:31.730Z,4.89
2023-02-24T21:12:58.087Z,4.86
2023-02-24T21:15:24.541Z,4.82
2023-02-24T21:17:50.989Z,4.81
2023-02-24T21:20:17.647Z,4.80
2023-02-24T21:22:44.101Z,4.74
2023-02-24T21:25:11.228Z,4.60
2023-02-24T21:27:38.465Z,4.52
2023-02-24T21:30:06.351Z,4.45
2023-02-24T21:32:32.875Z,4.37
2023-02-24T21:34:59.357Z,4.32
2023-02-24T21:37:25.790Z,4.28
2023-02-24T21:39:52.242Z,4.25
2023-02-24T21:42:18.733Z,4.24
2023-02-24T21:44:45.157Z,4.23
2023-02-24T21:47:11.587Z,4.22
2023-02-24T21:49:37.994Z,4.23
2023-02-24T21:52:05.397Z,4.20
2023-02-24T21:54:32.451Z,4.19
2023-02-24T21:56:58.969Z,4.15
2023-02-24T21:59:25.388Z,4.11
2023-02-24T22:01:54.157Z,4.06
2023-02-24T22:04:21.688Z,4.03
2023-02-24T22:06:48.162Z,3.99
2023-02-24T22:09:19.230Z,3.94
2023-02-24T22:11:46.244Z,3.90
2023-02-24T22:14:14.748Z,3.87
2023-02-24T22:16:42.299Z,3.81
2023-02-24T22:19:09.346Z,3.78
2023-02-24T22:21:35.800Z,3.77
2023-02-24T22:24:03.597Z,3.74
2023-02-24T22:26:30.778Z,3.73
2023-02-24T22:28:58.057Z,3.73
2023-02-24T22:31:27.024Z,3.74
2023-02-24T22:33:53.738Z,3.73
2023-02-24T22:36:26.170Z,3.72
2023-02-24T22:38:54.433Z,3.69
2023-02-24T22:41:23.786Z,3.67
2023-02-24T22:43:50.632Z,3.61
2023-02-24T22:46:21.556Z,3.56
2023-02-24T22:48:48.406Z,3.49
2023-02-24T22:51:15.068Z,3.45
2023-02-24T22:53:44.446Z,3.41
2023-02-24T22:56:13.006Z,3.37
2023-02-24T22:58:39.848Z,3.35
2023-02-24T23:01:11.308Z,3.33
2023-02-24T23:03:38.268Z,3.31
2023-02-24T23:06:07.416Z,3.27
2023-02-24T23:08:36.260Z,3.29
2023-02-24T23:11:05.355Z,3.31
2023-02-24T23:13:35.350Z,3.28
2023-02-24T23:16:03.501Z,3.26
2023-02-24T23:18:31.490Z,3.24
2023-02-24T23:20:59.876Z,3.23
2023-02-24T23:23:27.647Z,3.21
2023-02-24T23:25:54.045Z,3.21
2023-02-24T23:28:20.955Z,3.19
2023-02-24T23:30:48.206Z,3.20
2023-02-24T23:33:15.164Z,3.18
2023-02-24T23:35:42.208Z,3.19
2023-02-24T23:38:09.633Z,3.21
2023-02-24T23:40:51.160Z,3.25
2023-02-24T23:43:18.282Z,3.26
2023-02-24T23:45:44.878Z,3.28
2023-02-24T23:48:13.244Z,3.29
2023-02-24T23:50:41.374Z,3.29
2023-02-24T23:53:08.934Z,3.36
2023-02-24T23:55:35.844Z,3.41
2023-02-24T23:58:03.582Z,3.53
